Time;durP1;ratioP1;P1;durP2;ratioP2;P2;SDS_P1;SDS_P2;PMS_P1;PMS_P2;Temp;Humidity;BMP_temperature;BMP_pressure;BME280_temperature;BME280_humidity;BME280_pressure;Samples;Min_cycle;Max_cycle;Signal;HPM_P1;HPM_P2
2022/04/12 00:00:33;;;;;;;7.45;1.80;;;22.10;99.90;;;;;;5047792;28;20032;-69
2022/04/12 00:03:00;;;;;;;10.48;2.22;;;22.10;99.90;;;;;;5054189;28;20739;-69
2022/04/12 00:05:27;;;;;;;9.27;2.35;;;22.30;99.90;;;;;;5048307;28;20029;-69
2022/04/12 00:07:54;;;;;;;9.98;2.13;;;22.20;99.90;;;;;;5045926;28;20032;-72
2022/04/12 00:10:22;;;;;;;6.60;2.20;;;22.00;99.90;;;;;;5049504;28;20036;-68
2022/04/12 00:12:49;;;;;;;7.03;2.67;;;21.90;99.90;;;;;;5041856;28;20036;-69
2022/04/12 00:15:16;;;;;;;9.23;2.55;;;21.80;99.90;;;;;;5048425;28;20639;-69
2022/04/12 00:20:29;;;;;;;6.13;2.10;;;22.00;99.90;;;;;;5047529;28;20570;-71
2022/04/12 00:22:57;;;;;;;8.63;2.08;;;21.90;99.90;;;;;;5052946;28;20060;-69
2022/04/12 00:25:25;;;;;;;5.32;2.13;;;22.00;99.90;;;;;;5048971;28;20466;-69
2022/04/12 00:27:54;;;;;;;4.53;1.67;;;22.10;99.90;;;;;;5044544;28;20044;-71
2022/04/12 00:30:23;;;;;;;6.22;1.80;;;22.30;99.90;;;;;;5047656;28;20032;-68
2022/04/12 00:32:52;;;;;;;8.10;1.83;;;22.30;99.90;;;;;;5053267;28;20075;-71
2022/04/12 00:35:21;;;;;;;7.00;1.95;;;22.40;99.90;;;;;;5048607;28;20043;-71
2022/04/12 00:37:51;;;;;;;7.07;2.30;;;22.30;99.90;;;;;;5049738;28;20044;-69
2022/04/12 00:40:20;;;;;;;9.60;2.47;;;22.30;99.90;;;;;;5047422;28;20028;-70
2022/04/12 00:42:48;;;;;;;7.82;1.77;;;22.40;99.90;;;;;;5052673;28;20025;-69
2022/04/12 00:45:16;;;;;;;7.90;2.15;;;22.50;99.90;;;;;;5049287;28;20051;-69
2022/04/12 00:47:44;;;;;;;8.45;1.80;;;22.30;99.90;;;;;;5044306;28;20036;-69
2022/04/12 00:50:12;;;;;;;6.45;1.80;;;22.40;99.90;;;;;;5048429;28;20099;-71
2022/04/12 00:52:51;;;;;;;8.05;2.40;;;22.50;99.90;;;;;;5053721;28;20416;-70
2022/04/12 00:55:18;;;;;;;10.07;2.13;;;22.70;99.90;;;;;;5050397;28;20021;-70
2022/04/12 00:57:47;;;;;;;6.63;1.77;;;23.00;99.90;;;;;;5050675;28;20032;-69
2022/04/12 01:00:16;;;;;;;5.68;1.77;;;23.30;99.90;;;;;;5051485;28;20021;-70
2022/04/12 01:02:43;;;;;;;6.63;1.92;;;23.40;99.90;;;;;;5053413;28;20333;-70
2022/04/12 01:05:13;;;;;;;6.45;1.92;;;23.50;99.90;;;;;;5051988;28;20032;-69
2022/04/12 01:07:42;;;;;;;7.57;1.90;;;23.50;99.90;;;;;;5050738;28;20036;-69
2022/04/12 01:10:09;;;;;;;9.18;2.08;;;23.40;99.90;;;;;;5051579;28;20161;-71
2022/04/12 01:12:41;;;;;;;8.73;2.22;;;23.40;99.90;;;;;;5059303;28;20017;-72
2022/04/12 01:15:24;;;;;;;9.88;2.25;;;23.30;99.90;;;;;;5046984;28;20029;-69
2022/04/12 01:17:52;;;;;;;7.72;1.88;;;23.20;99.90;;;;;;5045663;28;20136;-70
2022/04/12 01:20:24;;;;;;;10.35;2.10;;;23.00;99.90;;;;;;5054264;28;20036;-69
2022/04/12 01:23:12;;;;;;;9.18;2.15;;;22.70;99.90;;;;;;5047063;28;20474;-69
2022/04/12 01:25:39;;;;;;;8.35;1.90;;;22.60;99.90;;;;;;5049444;28;20036;-71
2022/04/12 01:28:08;;;;;;;8.13;2.25;;;22.60;99.90;;;;;;5047866;28;20044;-69
2022/04/12 01:30:35;;;;;;;11.02;2.50;;;22.70;99.90;;;;;;5053925;28;20021;-70
2022/04/12 01:33:03;;;;;;;5.47;1.90;;;22.80;99.90;;;;;;5052722;28;20733;-69
2022/04/12 01:35:30;;;;;;;10.07;2.15;;;22.90;99.90;;;;;;5052118;28;20120;-69
2022/04/12 01:37:57;;;;;;;5.97;2.30;;;23.10;99.90;;;;;;5049440;28;20036;-69
2022/04/12 01:40:25;;;;;;;8.05;2.40;;;23.20;99.90;;;;;;5053762;28;20104;-70
2022/04/12 01:42:52;;;;;;;7.18;1.95;;;23.30;99.90;;;;;;5051759;28;20499;-69
2022/04/12 01:45:21;;;;;;;8.32;2.05;;;23.40;99.90;;;;;;5050579;28;20108;-69
2022/04/12 01:47:48;;;;;;;7.50;1.95;;;23.60;99.90;;;;;;5044901;28;20459;-71
2022/04/12 01:50:15;;;;;;;4.75;1.85;;;23.70;99.90;;;;;;5053564;28;20109;-71
2022/04/12 01:52:42;;;;;;;5.40;2.00;;;23.60;99.90;;;;;;5044900;28;20017;-69
2022/04/12 01:55:11;;;;;;;8.70;2.40;;;23.60;99.90;;;;;;5043280;28;20025;-69
2022/04/12 01:57:38;;;;;;;5.28;1.90;;;24.40;99.90;;;;;;5047872;28;20387;-70
2022/04/12 02:00:07;;;;;;;8.02;1.88;;;25.10;99.90;;;;;;5043369;28;20391;-69
2022/04/12 02:02:34;;;;;;;7.57;2.08;;;26.00;99.90;;;;;;5052480;28;20131;-69
2022/04/12 02:05:01;;;;;;;6.63;2.15;;;26.40;99.90;;;;;;5054230;28;20037;-71
2022/04/12 02:07:28;;;;;;;7.85;1.73;;;26.60;99.90;;;;;;5042589;28;20029;-67
2022/04/12 02:09:55;;;;;;;9.05;2.10;;;26.90;99.90;;;;;;5049740;28;20052;-68
2022/04/12 02:12:22;;;;;;;6.00;1.85;;;27.40;99.90;;;;;;5049961;28;20041;-69
2022/04/12 02:14:49;;;;;;;5.72;1.60;;;27.20;98.80;;;;;;5050223;28;20071;-71
2022/04/12 02:17:16;;;;;;;7.13;2.00;;;26.70;99.20;;;;;;5048869;28;20044;-68
2022/04/12 02:19:43;;;;;;;5.82;1.85;;;26.30;99.90;;;;;;5048906;28;20028;-69
2022/04/12 02:22:10;;;;;;;5.88;1.90;;;26.00;99.60;;;;;;5043204;28;20414;-68
2022/04/12 02:24:37;;;;;;;6.00;2.00;;;25.60;99.90;;;;;;5049839;28;20095;-68
2022/04/12 02:27:04;;;;;;;6.38;1.52;;;25.20;99.90;;;;;;5048261;28;20031;-69
2022/04/12 02:29:31;;;;;;;4.53;2.08;;;24.70;99.90;;;;;;5045976;28;20453;-68
2022/04/12 02:31:58;;;;;;;7.68;2.17;;;24.40;99.90;;;;;;5051977;28;20059;-69
2022/04/12 02:34:25;;;;;;;4.47;1.63;;;23.90;99.90;;;;;;5044811;28;20088;-69
2022/04/12 02:36:52;;;;;;;7.35;2.08;;;23.60;99.90;;;;;;5045084;28;20144;-69
2022/04/12 02:39:19;;;;;;;7.93;2.22;;;23.40;99.90;;;;;;5046432;28;20058;-69
2022/04/12 02:41:46;;;;;;;5.50;1.85;;;23.40;99.90;;;;;;5054675;28;20082;-71
2022/04/12 02:44:13;;;;;;;7.03;2.08;;;23.40;99.90;;;;;;5050041;28;20029;-70
2022/04/12 02:46:40;;;;;;;6.68;1.77;;;23.30;99.90;;;;;;5037930;28;20037;-71
2022/04/12 02:49:09;;;;;;;7.68;2.08;;;23.30;99.90;;;;;;5046410;28;20030;-70
2022/04/12 02:51:36;;;;;;;6.50;2.00;;;23.40;99.90;;;;;;5053173;28;20831;-71
2022/04/12 02:54:03;;;;;;;9.48;2.10;;;23.60;99.90;;;;;;5050274;28;20039;-69
2022/04/12 02:56:30;;;;;;;6.10;2.30;;;23.80;99.90;;;;;;5041329;28;20025;-70
2022/04/12 02:58:57;;;;;;;6.15;1.90;;;24.30;99.90;;;;;;5045774;28;20058;-69
2022/04/12 03:01:25;;;;;;;7.72;2.72;;;25.10;99.90;;;;;;5051261;28;20114;-69
2022/04/12 03:03:52;;;;;;;6.90;2.25;;;25.70;99.90;;;;;;5049823;28;20024;-72
2022/04/12 03:06:19;;;;;;;5.18;1.98;;;26.30;99.90;;;;;;5051133;28;20036;-72
2022/04/12 03:08:46;;;;;;;4.65;1.90;;;26.80;99.90;;;;;;5050184;28;20083;-70
2022/04/12 03:11:13;;;;;;;5.03;1.70;;;26.80;99.30;;;;;;5049403;28;20136;-70
2022/04/12 03:13:40;;;;;;;6.97;2.20;;;26.90;99.30;;;;;;5051409;28;20387;-72
2022/04/12 03:16:07;;;;;;;7.32;2.20;;;27.10;99.10;;;;;;5050792;28;20032;-70
2022/04/12 03:18:34;;;;;;;9.38;2.53;;;26.70;98.50;;;;;;5049813;28;20032;-70
2022/04/12 03:21:01;;;;;;;5.22;2.13;;;26.00;99.30;;;;;;5049524;28;20044;-72
2022/04/12 03:23:28;;;;;;;8.50;1.98;;;25.60;99.90;;;;;;5053351;28;20069;-72
2022/04/12 03:25:55;;;;;;;7.68;3.13;;;25.10;99.90;;;;;;5049934;28;20067;-70
2022/04/12 03:28:21;;;;;;;6.38;1.88;;;24.90;99.90;;;;;;5050166;28;20543;-70
2022/04/12 03:30:48;;;;;;;8.25;2.13;;;24.90;99.90;;;;;;5044738;28;20495;-70
2022/04/12 03:33:15;;;;;;;6.07;2.22;;;24.70;99.90;;;;;;5052465;28;20053;-71
2022/04/12 03:35:43;;;;;;;5.65;2.20;;;24.60;99.90;;;;;;5045330;28;20013;-71
2022/04/12 03:38:10;;;;;;;14.70;3.35;;;24.40;99.90;;;;;;5043385;28;20049;-70
2022/04/12 03:40:37;;;;;;;10.30;2.30;;;24.50;99.90;;;;;;5045607;28;20025;-72
2022/04/12 03:43:05;;;;;;;5.22;2.00;;;25.20;99.90;;;;;;5042939;28;20040;-70
2022/04/12 03:45:34;;;;;;;4.70;1.92;;;25.50;99.90;;;;;;5044567;28;20017;-70
2022/04/12 03:48:01;;;;;;;5.22;1.98;;;25.90;99.90;;;;;;5042619;28;20041;-70
2022/04/12 03:50:28;;;;;;;4.07;1.90;;;26.30;98.90;;;;;;5048852;28;20033;-70
2022/04/12 03:52:55;;;;;;;7.32;2.05;;;26.60;98.70;;;;;;5047880;28;20033;-72
2022/04/12 03:55:31;;;;;;;7.78;2.85;;;27.00;98.20;;;;;;5046691;28;20021;-71
2022/04/12 03:58:03;;;;;;;7.88;2.38;;;26.80;98.30;;;;;;5044215;28;20028;-71
2022/04/12 04:00:31;;;;;;;5.15;1.90;;;26.30;98.20;;;;;;5046764;28;20663;-70
2022/04/12 04:02:58;;;;;;;5.32;1.80;;;25.70;99.30;;;;;;5046490;28;20207;-70
2022/04/12 04:05:26;;;;;;;8.77;2.50;;;25.00;99.90;;;;;;5051037;28;20024;-70
2022/04/12 04:07:53;;;;;;;14.63;2.72;;;24.80;99.90;;;;;;5045645;28;20494;-69
2022/04/12 04:10:21;;;;;;;10.73;2.65;;;24.70;99.90;;;;;;5044976;28;20017;-71
2022/04/12 04:12:49;;;;;;;7.50;2.22;;;24.40;99.90;;;;;;5045754;28;20025;-70
2022/04/12 04:15:16;;;;;;;7.78;3.22;;;24.10;99.90;;;;;;5043759;28;20018;-71
2022/04/12 04:17:45;;;;;;;7.43;2.13;;;24.40;99.90;;;;;;5044361;28;20063;-70
2022/04/12 04:20:14;;;;;;;7.20;2.28;;;24.90;99.90;;;;;;5042172;28;20083;-70
2022/04/12 04:22:42;;;;;;;7.55;2.28;;;25.00;99.90;;;;;;5044325;28;20752;-70
2022/04/12 04:25:10;;;;;;;3.97;2.13;;;24.90;99.90;;;;;;5048184;28;20025;-69
2022/04/12 04:27:41;;;;;;;7.15;2.47;;;24.60;99.90;;;;;;5044383;28;20123;-69
2022/04/12 04:30:09;;;;;;;8.77;2.88;;;24.30;99.90;;;;;;5044170;28;20028;-70
2022/04/12 04:32:37;;;;;;;7.53;2.35;;;24.10;99.90;;;;;;5047186;28;20013;-69
2022/04/12 04:35:05;;;;;;;5.00;2.47;;;23.80;99.90;;;;;;5048462;28;20039;-70
2022/04/12 04:37:32;;;;;;;7.22;2.60;;;23.40;99.90;;;;;;5041576;28;20052;-71
2022/04/12 04:39:59;;;;;;;8.88;2.20;;;23.20;99.90;;;;;;5043968;28;20029;-69
2022/04/12 04:42:27;;;;;;;9.82;2.40;;;23.20;99.90;;;;;;5042606;28;20140;-70
2022/04/12 04:44:54;;;;;;;5.60;2.08;;;23.20;99.90;;;;;;5042918;28;20047;-70
2022/04/12 04:47:21;;;;;;;4.47;2.13;;;23.10;99.90;;;;;;5041127;28;20025;-69
2022/04/12 04:49:47;;;;;;;7.22;2.35;;;23.20;99.90;;;;;;5043149;28;20430;-71
2022/04/12 04:52:16;;;;;;;8.57;2.15;;;23.20;99.90;;;;;;5042671;28;20049;-69
2022/04/12 04:54:42;;;;;;;6.75;2.45;;;23.00;99.90;;;;;;5044493;28;20032;-70
2022/04/12 04:57:09;;;;;;;7.38;2.70;;;22.80;99.90;;;;;;5040722;28;20030;-71
2022/04/12 04:59:36;;;;;;;9.82;2.75;;;22.80;99.90;;;;;;5044426;28;20426;-69
2022/04/12 05:02:03;;;;;;;5.38;2.28;;;22.90;99.90;;;;;;5049276;28;20395;-69
2022/04/12 05:04:30;;;;;;;8.23;2.95;;;22.90;99.90;;;;;;5043935;28;20111;-69
2022/04/12 05:06:57;;;;;;;9.93;2.30;;;22.70;99.90;;;;;;5040304;28;20037;-69
2022/04/12 05:09:24;;;;;;;6.38;2.13;;;22.60;99.90;;;;;;5039471;28;20326;-69
2022/04/12 05:11:51;;;;;;;11.02;2.47;;;22.50;99.90;;;;;;5045479;28;20503;-69
2022/04/12 05:14:18;;;;;;;9.52;2.90;;;22.60;99.90;;;;;;5044101;28;20030;-70
2022/04/12 05:16:45;;;;;;;10.55;2.53;;;22.40;99.90;;;;;;5039634;28;20017;-70
2022/04/12 05:19:12;;;;;;;7.03;2.28;;;22.30;99.90;;;;;;5045875;28;20028;-69
2022/04/12 05:21:39;;;;;;;8.00;2.28;;;22.20;99.90;;;;;;5044868;28;20024;-69
2022/04/12 05:24:06;;;;;;;7.82;2.95;;;22.10;99.90;;;;;;5038100;28;20036;-70
2022/04/12 05:26:33;;;;;;;7.50;2.58;;;22.00;99.90;;;;;;5039237;28;20020;-71
2022/04/12 05:29:00;;;;;;;7.00;2.35;;;22.00;99.90;;;;;;5044233;28;20029;-70
2022/04/12 05:31:27;;;;;;;7.28;2.70;;;22.00;99.90;;;;;;5045778;28;20757;-69
2022/04/12 05:33:54;;;;;;;7.53;2.38;;;21.90;99.90;;;;;;5039694;28;20733;-70
2022/04/12 05:36:21;;;;;;;6.63;2.72;;;21.80;99.90;;;;;;5038313;28;20494;-69
2022/04/12 05:38:48;;;;;;;6.38;2.38;;;21.80;99.90;;;;;;5037193;28;20049;-71
2022/04/12 05:41:15;;;;;;;13.95;3.08;;;21.70;99.90;;;;;;5040161;28;20429;-71
2022/04/12 05:43:42;;;;;;;5.65;3.05;;;21.70;99.90;;;;;;5038302;28;20052;-66
2022/04/12 05:46:09;;;;;;;7.95;2.60;;;21.70;99.90;;;;;;5040471;28;20116;-71
2022/04/12 05:48:35;;;;;;;11.15;2.90;;;21.70;99.90;;;;;;5040219;28;20039;-70
2022/04/12 05:51:02;;;;;;;10.52;2.97;;;21.70;99.90;;;;;;5042777;28;20082;-69
2022/04/12 05:53:29;;;;;;;6.65;3.20;;;21.60;99.90;;;;;;5042891;28;21523;-69
2022/04/12 05:55:56;;;;;;;7.90;3.03;;;21.50;99.90;;;;;;5042425;28;20040;-70
2022/04/12 05:58:24;;;;;;;7.10;3.00;;;21.30;99.90;;;;;;5039844;28;20028;-74
2022/04/12 06:00:51;;;;;;;7.75;2.80;;;21.30;99.90;;;;;;5040879;28;20032;-73
2022/04/12 06:03:19;;;;;;;9.45;2.95;;;21.30;99.90;;;;;;5040213;28;20213;-69
2022/04/12 06:05:46;;;;;;;10.63;3.38;;;21.30;99.90;;;;;;5042943;28;20041;-70
2022/04/12 06:08:13;;;;;;;12.65;3.10;;;21.30;99.90;;;;;;5042554;28;20021;-70
2022/04/12 06:10:40;;;;;;;8.48;2.95;;;21.20;99.90;;;;;;5042350;28;20082;-70
2022/04/12 06:13:07;;;;;;;9.00;2.75;;;21.20;99.90;;;;;;5044187;28;20043;-71
2022/04/12 06:15:33;;;;;;;12.25;4.63;;;21.20;99.90;;;;;;5044379;28;20021;-67
2022/04/12 06:18:00;;;;;;;11.15;2.92;;;21.10;99.90;;;;;;5043768;28;20434;-74
2022/04/12 06:20:27;;;;;;;6.60;2.72;;;21.10;99.90;;;;;;5045450;28;20032;-70
2022/04/12 06:22:54;;;;;;;7.30;2.88;;;21.20;99.90;;;;;;5043148;28;20095;-75
2022/04/12 06:25:21;;;;;;;8.70;3.10;;;21.20;99.90;;;;;;5045556;28;20028;-71
2022/04/12 06:27:53;;;;;;;10.32;3.08;;;21.20;99.90;;;;;;5041818;28;20041;-70
2022/04/12 06:30:22;;;;;;;6.95;3.58;;;21.10;99.90;;;;;;5041573;28;20040;-70
2022/04/12 06:32:50;;;;;;;8.80;2.80;;;21.10;99.90;;;;;;5045699;28;20543;-70
2022/04/12 06:35:18;;;;;;;9.27;3.05;;;21.10;99.90;;;;;;5040414;28;20154;-69
2022/04/12 06:37:47;;;;;;;8.68;3.10;;;21.20;99.90;;;;;;5040272;28;20526;-68
2022/04/12 06:40:17;;;;;;;6.00;3.08;;;21.10;99.90;;;;;;5041267;28;20033;-68
2022/04/12 06:42:44;;;;;;;9.93;3.45;;;21.00;99.90;;;;;;5043998;28;20182;-69
2022/04/12 06:45:11;;;;;;;8.60;3.28;;;20.90;99.90;;;;;;5042442;28;20094;-69
2022/04/12 06:47:39;;;;;;;9.88;3.65;;;20.90;99.90;;;;;;5042490;28;20028;-66
2022/04/12 06:50:07;;;;;;;7.35;3.53;;;20.80;99.90;;;;;;5043624;28;20029;-70
2022/04/12 06:52:35;;;;;;;9.23;3.40;;;20.70;99.90;;;;;;5044316;28;20024;-68
2022/04/12 06:55:02;;;;;;;6.00;3.30;;;20.60;99.90;;;;;;5042106;28;20025;-71
2022/04/12 06:57:36;;;;;;;8.35;3.38;;;20.50;99.90;;;;;;5037133;28;20752;-67
2022/04/12 07:00:06;;;;;;;11.98;3.78;;;20.30;99.90;;;;;;5041610;28;20025;-69
2022/04/12 07:02:34;;;;;;;10.32;3.83;;;20.20;99.90;;;;;;5041903;28;20025;-70
2022/04/12 07:05:04;;;;;;;11.55;3.55;;;20.10;99.90;;;;;;5040377;28;20124;-66
2022/04/12 07:07:31;;;;;;;9.48;4.00;;;20.00;99.90;;;;;;5041982;28;20037;-68
2022/04/12 07:09:59;;;;;;;8.40;3.20;;;20.00;99.90;;;;;;5037971;28;20530;-68
2022/04/12 07:12:25;;;;;;;9.23;3.45;;;20.00;99.90;;;;;;5032420;28;20048;-66
2022/04/12 07:14:53;;;;;;;8.73;3.97;;;19.90;99.90;;;;;;5039215;28;20033;-72
2022/04/12 07:17:21;;;;;;;8.95;4.18;;;19.90;99.90;;;;;;5038221;28;20535;-68
2022/04/12 07:19:48;;;;;;;13.20;7.40;;;19.90;99.90;;;;;;5039644;28;20025;-66
2022/04/12 07:22:15;;;;;;;8.85;4.28;;;19.90;99.90;;;;;;5039754;28;20136;-69
2022/04/12 07:24:42;;;;;;;12.13;4.00;;;19.90;99.90;;;;;;5040847;28;20494;-67
2022/04/12 07:27:09;;;;;;;8.32;3.47;;;19.90;99.90;;;;;;5040540;28;20029;-69
2022/04/12 07:29:36;;;;;;;12.20;4.00;;;19.90;99.90;;;;;;5042952;28;20025;-68
2022/04/12 07:32:03;;;;;;;8.27;4.00;;;19.90;99.90;;;;;;5041780;28;20039;-68
2022/04/12 07:34:30;;;;;;;9.95;3.30;;;20.00;99.90;;;;;;5042757;28;20024;-68
2022/04/12 07:36:57;;;;;;;12.20;4.10;;;19.90;99.90;;;;;;5042501;28;20116;-68
2022/04/12 07:39:24;;;;;;;7.80;3.97;;;19.80;99.90;;;;;;5043708;28;20036;-69
2022/04/12 07:41:52;;;;;;;8.25;3.70;;;19.70;99.90;;;;;;5042370;28;20514;-72
2022/04/12 07:44:21;;;;;;;8.15;3.33;;;19.60;99.90;;;;;;5040065;28;20651;-72
2022/04/12 07:46:48;;;;;;;8.93;3.53;;;19.50;99.90;;;;;;5041625;28;20048;-70
2022/04/12 07:49:16;;;;;;;8.32;3.17;;;19.40;99.90;;;;;;5044724;28;20029;-72
2022/04/12 07:51:43;;;;;;;9.73;3.63;;;19.40;99.90;;;;;;5045041;28;20021;-72
2022/04/12 07:54:10;;;;;;;9.90;3.25;;;19.30;99.90;;;;;;5044922;28;20025;-72
2022/04/12 07:56:37;;;;;;;9.55;3.65;;;19.30;99.90;;;;;;5044131;28;20052;-72
2022/04/12 07:59:06;;;;;;;11.85;4.28;;;19.30;99.90;;;;;;5043028;28;20599;-70
2022/04/12 08:01:33;;;;;;;10.20;4.38;;;19.30;99.90;;;;;;5041603;28;20032;-69
2022/04/12 08:04:00;;;;;;;6.05;3.35;;;19.30;99.90;;;;;;5041187;28;20652;-69
2022/04/12 08:06:27;;;;;;;8.85;3.53;;;19.20;99.90;;;;;;5043795;28;20091;-69
2022/04/12 08:08:54;;;;;;;5.05;3.38;;;19.10;99.90;;;;;;5041161;28;20041;-69
2022/04/12 08:11:21;;;;;;;9.07;3.17;;;19.10;99.90;;;;;;5041593;28;20082;-68
2022/04/12 08:13:48;;;;;;;9.02;3.95;;;19.20;99.90;;;;;;5045818;28;20497;-69
2022/04/12 08:16:15;;;;;;;7.65;4.50;;;19.20;99.90;;;;;;5045367;28;20060;-69
2022/04/12 08:18:46;;;;;;;26.95;9.25;;;19.20;99.90;;;;;;5046090;28;20909;-68
2022/04/12 08:21:13;;;;;;;31.45;13.38;;;19.20;99.90;;;;;;5045778;28;20025;-69
2022/04/12 08:23:40;;;;;;;115.72;32.05;;;19.20;99.90;;;;;;5045230;28;20036;-71
2022/04/12 08:26:07;;;;;;;72.18;27.13;;;19.20;99.90;;;;;;5044721;28;20033;-71
2022/04/12 08:28:34;;;;;;;72.07;33.95;;;19.20;99.90;;;;;;5046575;28;20082;-69
2022/04/12 08:31:01;;;;;;;25.02;13.57;;;19.20;99.90;;;;;;5044664;28;20056;-71
2022/04/12 08:33:28;;;;;;;84.03;60.65;;;19.20;99.90;;;;;;5044391;28;20033;-69
2022/04/12 08:35:55;;;;;;;66.07;44.95;;;19.30;99.90;;;;;;5045206;28;20066;-69
2022/04/12 08:38:22;;;;;;;70.13;36.85;;;19.30;99.90;;;;;;5045554;28;20094;-69
2022/04/12 08:40:50;;;;;;;31.77;15.52;;;19.30;99.90;;;;;;5045597;28;20082;-71
2022/04/12 08:43:20;;;;;;;23.55;10.25;;;19.40;99.90;;;;;;5039598;28;20032;-71
2022/04/12 08:45:48;;;;;;;41.28;20.60;;;19.40;99.90;;;;;;5043736;28;20994;-68
2022/04/12 08:48:16;;;;;;;8.40;3.55;;;19.40;99.90;;;;;;5042229;28;20123;-68
2022/04/12 08:50:44;;;;;;;82.25;43.05;;;19.40;99.90;;;;;;5042154;28;20026;-70
2022/04/12 08:53:13;;;;;;;34.88;16.08;;;19.40;99.90;;;;;;5040315;28;20510;-69
2022/04/12 08:55:41;;;;;;;30.70;16.67;;;19.40;99.90;;;;;;5054838;28;20144;-74
2022/04/12 08:58:08;;;;;;;8.93;4.55;;;19.50;99.90;;;;;;5034808;28;20037;-70
2022/04/12 09:00:35;;;;;;;9.80;5.65;;;19.40;99.90;;;;;;5034986;28;20766;-67
2022/04/12 09:03:03;;;;;;;28.85;15.95;;;19.40;99.90;;;;;;5035616;28;20056;-70
2022/04/12 09:05:32;;;;;;;23.90;12.95;;;19.30;99.90;;;;;;5036052;28;20390;-67
2022/04/12 09:08:00;;;;;;;17.85;10.02;;;19.30;99.90;;;;;;5035682;28;20025;-72
2022/04/12 09:10:35;;;;;;;5.88;3.17;;;19.40;99.90;;;;;;5035025;28;20029;-73
2022/04/12 09:13:14;;;;;;;35.83;14.82;;;19.40;99.90;;;;;;5040197;28;20112;-71
2022/04/12 09:15:45;;;;;;;23.95;11.27;;;19.40;99.90;;;;;;5041208;28;20023;-67
2022/04/12 09:18:12;;;;;;;11.63;5.45;;;19.40;99.90;;;;;;5040080;28;21394;-73
2022/04/12 09:20:42;;;;;;;7.07;3.20;;;19.40;99.90;;;;;;5039528;28;20037;-69
2022/04/12 09:23:16;;;;;;;7.63;3.03;;;19.40;99.90;;;;;;5036919;28;20534;-66
2022/04/12 09:25:55;;;;;;;9.95;3.78;;;19.40;99.90;;;;;;5039282;28;20029;-66
2022/04/12 09:28:22;;;;;;;8.63;4.50;;;19.40;99.90;;;;;;5037824;28;20119;-65
2022/04/12 09:30:55;;;;;;;11.68;4.47;;;19.50;99.90;;;;;;5037217;28;20461;-69
2022/04/12 09:33:43;;;;;;;13.10;7.50;;;19.50;99.90;;;;;;5036742;28;20566;-66
2022/04/12 09:36:11;;;;;;;10.60;5.78;;;19.50;99.90;;;;;;5037055;28;20021;-66
2022/04/12 09:38:39;;;;;;;7.93;3.92;;;19.50;99.90;;;;;;5037946;28;20057;-72
2022/04/12 09:41:24;;;;;;;10.63;5.35;;;19.50;99.90;;;;;;5036411;28;20521;-71
2022/04/12 09:43:54;;;;;;;9.70;3.25;;;19.40;99.90;;;;;;5036002;28;20094;-67
2022/04/12 09:46:22;;;;;;;7.05;3.72;;;19.40;99.90;;;;;;5034438;28;20037;-68
2022/04/12 09:48:51;;;;;;;8.18;4.20;;;19.40;99.90;;;;;;5038973;28;20025;-71
2022/04/12 09:51:21;;;;;;;7.68;3.95;;;19.40;99.90;;;;;;5038807;28;20020;-72
2022/04/12 09:53:48;;;;;;;8.70;3.42;;;19.40;99.90;;;;;;5037481;28;20392;-70
2022/04/12 09:56:24;;;;;;;9.75;3.45;;;19.30;99.90;;;;;;5035425;28;20072;-68
2022/04/12 09:58:54;;;;;;;6.30;3.45;;;19.30;99.90;;;;;;5037007;28;20518;-70
2022/04/12 10:01:23;;;;;;;11.38;4.25;;;19.30;99.90;;;;;;5038217;28;20033;-66
2022/04/12 10:03:52;;;;;;;7.15;3.30;;;19.20;99.90;;;;;;5040066;28;20037;-68
2022/04/12 10:06:21;;;;;;;12.68;3.78;;;19.30;99.90;;;;;;5040919;28;20021;-66
2022/04/12 10:08:55;;;;;;;7.32;3.67;;;19.20;99.90;;;;;;5042132;28;20052;-67
2022/04/12 10:11:23;;;;;;;9.45;3.38;;;19.10;99.90;;;;;;5040359;28;20061;-70
2022/04/12 10:13:51;;;;;;;11.68;4.10;;;19.10;99.90;;;;;;5043584;28;20059;-67
2022/04/12 10:16:22;;;;;;;13.30;3.85;;;19.10;99.90;;;;;;5040634;28;20060;-68
2022/04/12 10:18:50;;;;;;;9.18;4.10;;;19.10;99.90;;;;;;5041769;28;20129;-70
2022/04/12 10:21:19;;;;;;;5.97;3.47;;;19.10;99.90;;;;;;5040093;28;20033;-69
2022/04/12 10:23:51;;;;;;;9.32;4.15;;;19.10;99.90;;;;;;5039492;28;20277;-68
2022/04/12 10:26:21;;;;;;;10.25;4.28;;;19.10;99.90;;;;;;5041840;28;20529;-68
2022/04/12 10:29:08;;;;;;;8.48;4.05;;;19.00;99.90;;;;;;5041707;28;20547;-66
2022/04/12 10:31:35;;;;;;;8.73;4.15;;;19.00;99.90;;;;;;5040738;28;20021;-68
2022/04/12 10:34:03;;;;;;;10.38;4.10;;;19.00;99.90;;;;;;5041419;28;20056;-67
2022/04/12 10:37:10;;;;;;;8.85;3.53;;;19.00;99.90;;;;;;5072621;22;20174;-69
2022/04/12 10:39:44;;;;;;;9.63;3.88;;;18.90;99.90;;;;;;4978770;28;20056;-67
2022/04/12 10:42:14;;;;;;;9.23;3.70;;;18.90;99.90;;;;;;4977130;28;20033;-67
2022/04/12 10:44:43;;;;;;;10.15;3.60;;;18.90;99.90;;;;;;4972830;28;20038;-68
2022/04/12 10:47:35;;;;;;;8.60;4.18;;;18.80;99.90;;;;;;4973412;28;20022;-68
2022/04/12 10:50:07;;;;;;;10.85;3.92;;;18.60;99.90;;;;;;4968855;28;20515;-71
2022/04/12 10:52:35;;;;;;;12.77;3.58;;;18.50;99.90;;;;;;4975431;28;20022;-71
2022/04/12 10:55:05;;;;;;;13.40;4.30;;;18.40;99.90;;;;;;4975312;28;20477;-70
2022/04/12 10:57:33;;;;;;;9.23;4.00;;;18.40;99.90;;;;;;4976277;28;20031;-69
2022/04/12 11:00:26;;;;;;;10.82;4.20;;;18.30;99.90;;;;;;4977081;28;20644;-70
2022/04/12 11:02:59;;;;;;;11.40;3.97;;;18.30;99.90;;;;;;4973149;28;20484;-71
2022/04/12 11:05:42;;;;;;;8.93;4.18;;;18.20;99.90;;;;;;4974522;28;20156;-71
2022/04/12 11:08:31;;;;;;;9.70;4.75;;;18.10;99.90;;;;;;4972646;28;20928;-69
2022/04/12 11:10:59;;;;;;;9.07;5.20;;;18.00;99.90;;;;;;4973551;28;20069;-70
2022/04/12 11:13:29;;;;;;;8.18;5.13;;;18.10;99.90;;;;;;4975693;28;20437;-69
2022/04/12 11:16:01;;;;;;;8.98;4.25;;;18.00;99.90;;;;;;4974674;28;20492;-70
2022/04/12 11:18:53;;;;;;;12.30;3.70;;;18.00;99.90;;;;;;4974094;28;20392;-69
2022/04/12 11:21:23;;;;;;;9.07;3.88;;;18.00;99.90;;;;;;4976336;28;20423;-69
2022/04/12 11:24:01;;;;;;;9.93;3.75;;;18.00;99.90;;;;;;4977399;28;20106;-71
2022/04/12 11:26:44;;;;;;;7.72;3.92;;;18.00;99.90;;;;;;4980662;28;20050;-67
2022/04/12 11:29:11;;;;;;;10.70;4.18;;;18.00;99.90;;;;;;4979653;28;20492;-68
2022/04/12 11:31:50;;;;;;;12.00;5.18;;;17.90;99.90;;;;;;4976004;28;20278;-68
2022/04/12 11:34:18;;;;;;;8.15;4.68;;;17.80;99.90;;;;;;4982182;28;20037;-71
2022/04/12 11:36:51;;;;;;;11.95;5.07;;;17.80;99.90;;;;;;4979704;28;20049;-70
2022/04/12 11:39:23;;;;;;;10.15;4.38;;;17.80;99.90;;;;;;4980753;28;20022;-70
2022/04/12 11:41:50;;;;;;;9.80;3.63;;;17.80;99.90;;;;;;4980729;28;20033;-71
2022/04/12 11:44:24;;;;;;;10.15;4.82;;;17.80;99.90;;;;;;4978527;28;21241;-70
2022/04/12 11:47:02;;;;;;;8.25;4.10;;;17.80;99.90;;;;;;4979553;28;20455;-69
2022/04/12 11:49:43;;;;;;;9.90;4.10;;;17.70;99.90;;;;;;4982895;28;20389;-71
2022/04/12 11:52:12;;;;;;;10.90;4.30;;;17.60;99.90;;;;;;4981979;28;20522;-70
2022/04/12 11:54:48;;;;;;;11.00;3.83;;;17.60;99.90;;;;;;4979426;28;20023;-70
2022/04/12 11:57:24;;;;;;;8.27;4.00;;;17.50;99.90;;;;;;4980554;28;20018;-68
2022/04/12 11:59:53;;;;;;;10.73;4.13;;;17.60;99.90;;;;;;4979496;28;20030;-68
2022/04/12 12:02:22;;;;;;;8.13;3.97;;;17.60;99.90;;;;;;4981178;28;20101;-67
2022/04/12 12:04:57;;;;;;;10.18;4.35;;;17.60;99.90;;;;;;4979102;28;20042;-68
2022/04/12 12:07:26;;;;;;;7.63;3.95;;;17.60;99.90;;;;;;4979127;28;20029;-69
2022/04/12 12:09:58;;;;;;;8.07;3.80;;;17.60;99.90;;;;;;4976436;28;20525;-68
2022/04/12 12:12:35;;;;;;;11.43;4.07;;;17.50;99.90;;;;;;4979470;28;20053;-69
2022/04/12 12:15:15;;;;;;;9.52;4.07;;;17.60;99.90;;;;;;4979591;28;20084;-70
2022/04/12 12:17:45;;;;;;;12.30;4.43;;;17.60;99.90;;;;;;4981058;28;20058;-67
2022/04/12 12:20:14;;;;;;;9.00;3.70;;;17.50;99.90;;;;;;4981198;28;20034;-69
2022/04/12 12:22:43;;;;;;;8.10;4.00;;;17.30;99.90;;;;;;4981343;28;20535;-70
2022/04/12 12:25:18;;;;;;;9.27;3.65;;;17.40;99.90;;;;;;4977951;28;20377;-68
2022/04/12 12:27:55;;;;;;;9.35;4.18;;;17.30;99.90;;;;;;4979013;28;20035;-67
2022/04/12 12:30:27;;;;;;;9.32;3.53;;;17.40;99.90;;;;;;4979355;28;20037;-70
2022/04/12 12:32:58;;;;;;;9.25;4.18;;;17.20;99.90;;;;;;4975725;28;20050;-67
2022/04/12 12:35:27;;;;;;;11.95;3.90;;;17.20;99.90;;;;;;4978400;28;20101;-68
2022/04/12 12:38:10;;;;;;;8.52;4.30;;;17.10;99.90;;;;;;4978831;28;20085;-70
2022/04/12 12:40:37;;;;;;;;;;;17.10;99.90;;;;;;4979097;28;20117;-70
2022/04/12 12:43:06;;;;;;;11.73;4.38;;;17.10;99.90;;;;;;4978274;28;20033;-70
2022/04/12 12:45:42;;;;;;;6.45;3.53;;;17.10;99.90;;;;;;4980485;28;20653;-70
2022/04/12 12:48:11;;;;;;;9.00;4.22;;;17.00;99.90;;;;;;4980382;28;20046;-72
2022/04/12 12:50:39;;;;;;;8.82;3.60;;;16.90;99.90;;;;;;4983078;28;20524;-68
2022/04/12 12:53:08;;;;;;;7.68;3.58;;;17.00;99.90;;;;;;4982150;28;20026;-69
2022/04/12 12:55:40;;;;;;;7.15;3.53;;;16.90;99.90;;;;;;4984349;28;20022;-69